sensor_id;sensor_type;location;lat;lon;timestamp;temperature;humidity
14985;DHT22;7588;62.368;25.902;2022-10-31T00:00:45;-1.30;99.90
14985;DHT22;7588;62.368;25.902;2022-10-31T00:03:11;-1.40;99.90
14985;DHT22;7588;62.368;25.902;2022-10-31T00:05:44;-1.40;99.90
14985;DHT22;7588;62.368;25.902;2022-10-31T00:08:10;-1.30;99.90
14985;DHT22;7588;62.368;25.902;2022-10-31T00:10:40;-1.30;99.90
14985;DHT22;7588;62.368;25.902;2022-10-31T00:13:07;-1.20;99.90
14985;DHT22;7588;62.368;25.902;2022-10-31T00:15:37;-1.30;99.90
14985;DHT22;7588;62.368;25.902;2022-10-31T00:18:05;-1.50;99.90
14985;DHT22;7588;62.368;25.902;2022-10-31T00:20:31;-1.60;99.90
14985;DHT22;7588;62.368;25.902;2022-10-31T00:22:58;-1.60;99.90
14985;DHT22;7588;62.368;25.902;2022-10-31T00:25:24;-1.70;99.90
14985;DHT22;7588;62.368;25.902;2022-10-31T00:27:50;-1.70;99.90
14985;DHT22;7588;62.368;25.902;2022-10-31T00:30:16;-1.70;99.90
14985;DHT22;7588;62.368;25.902;2022-10-31T00:32:41;-1.70;99.90
14985;DHT22;7588;62.368;25.902;2022-10-31T00:35:07;-1.50;99.90
14985;DHT22;7588;62.368;25.902;2022-10-31T00:37:33;-1.60;99.90
14985;DHT22;7588;62.368;25.902;2022-10-31T00:39:59;-1.70;99.90
14985;DHT22;7588;62.368;25.902;2022-10-31T00:42:24;-1.70;99.90
14985;DHT22;7588;62.368;25.902;2022-10-31T00:44:50;-1.80;99.90
14985;DHT22;7588;62.368;25.902;2022-10-31T00:47:16;-1.80;99.90
14985;DHT22;7588;62.368;25.902;2022-10-31T00:49:42;-1.90;99.90
14985;DHT22;7588;62.368;25.902;2022-10-31T00:52:07;-1.80;99.90
14985;DHT22;7588;62.368;25.902;2022-10-31T00:54:33;-1.90;99.90
14985;DHT22;7588;62.368;25.902;2022-10-31T00:56:59;-1.90;99.90
14985;DHT22;7588;62.368;25.902;2022-10-31T00:59:24;-2.00;99.90
14985;DHT22;7588;62.368;25.902;2022-10-31T01:01:50;-1.90;99.90
14985;DHT22;7588;62.368;25.902;2022-10-31T01:04:16;-2.00;99.90
14985;DHT22;7588;62.368;25.902;2022-10-31T01:06:42;-2.00;99.90
14985;DHT22;7588;62.368;25.902;2022-10-31T01:09:07;-2.10;99.90
14985;DHT22;7588;62.368;25.902;2022-10-31T01:11:33;-2.20;99.90
14985;DHT22;7588;62.368;25.902;2022-10-31T01:13:59;-2.00;99.90
14985;DHT22;7588;62.368;25.902;2022-10-31T01:16:26;-2.00;99.90
14985;DHT22;7588;62.368;25.902;2022-10-31T01:18:52;-1.90;99.90
14985;DHT22;7588;62.368;25.902;2022-10-31T01:21:19;-1.80;99.90
14985;DHT22;7588;62.368;25.902;2022-10-31T01:23:46;-1.80;99.90
14985;DHT22;7588;62.368;25.902;2022-10-31T01:26:17;-1.90;99.90
14985;DHT22;7588;62.368;25.902;2022-10-31T01:28:48;-1.90;99.90
14985;DHT22;7588;62.368;25.902;2022-10-31T01:31:16;-2.00;99.90
14985;DHT22;7588;62.368;25.902;2022-10-31T01:33:42;-2.00;99.90
14985;DHT22;7588;62.368;25.902;2022-10-31T01:36:23;-2.10;99.90
14985;DHT22;7588;62.368;25.902;2022-10-31T01:38:50;-2.20;99.90
14985;DHT22;7588;62.368;25.902;2022-10-31T01:41:23;-2.30;99.90
14985;DHT22;7588;62.368;25.902;2022-10-31T01:43:57;-2.20;99.90
14985;DHT22;7588;62.368;25.902;2022-10-31T01:46:27;-2.00;99.90
14985;DHT22;7588;62.368;25.902;2022-10-31T01:48:55;-2.10;99.90
14985;DHT22;7588;62.368;25.902;2022-10-31T01:51:26;-2.30;99.90
14985;DHT22;7588;62.368;25.902;2022-10-31T01:53:57;-2.40;99.90
14985;DHT22;7588;62.368;25.902;2022-10-31T01:56:24;-2.40;99.90
14985;DHT22;7588;62.368;25.902;2022-10-31T01:58:50;-2.40;99.90
14985;DHT22;7588;62.368;25.902;2022-10-31T02:01:17;-2.20;99.90
14985;DHT22;7588;62.368;25.902;2022-10-31T02:03:44;-2.20;99.90
14985;DHT22;7588;62.368;25.902;2022-10-31T02:06:19;-2.00;99.90
14985;DHT22;7588;62.368;25.902;2022-10-31T02:08:47;-1.90;99.90
14985;DHT22;7588;62.368;25.902;2022-10-31T02:11:13;-1.70;99.90
14985;DHT22;7588;62.368;25.902;2022-10-31T02:13:39;-1.70;99.90
14985;DHT22;7588;62.368;25.902;2022-10-31T02:16:05;-1.60;99.90
14985;DHT22;7588;62.368;25.902;2022-10-31T02:18:31;-1.50;99.90
14985;DHT22;7588;62.368;25.902;2022-10-31T02:21:05;-1.60;99.90
14985;DHT22;7588;62.368;25.902;2022-10-31T02:35:33;-1.70;99.90
14985;DHT22;7588;62.368;25.902;2022-10-31T02:49:00;-2.00;99.90
14985;DHT22;7588;62.368;25.902;2022-10-31T02:51:28;-2.10;99.90
14985;DHT22;7588;62.368;25.902;2022-10-31T02:53:54;-2.20;99.90
14985;DHT22;7588;62.368;25.902;2022-10-31T02:56:19;-2.20;99.90
14985;DHT22;7588;62.368;25.902;2022-10-31T02:58:59;-2.20;99.90
14985;DHT22;7588;62.368;25.902;2022-10-31T03:02:06;-2.20;99.90
14985;DHT22;7588;62.368;25.902;2022-10-31T03:07:26;-2.30;99.90
14985;DHT22;7588;62.368;25.902;2022-10-31T03:20:13;-2.40;99.90
14985;DHT22;7588;62.368;25.902;2022-10-31T03:22:42;-2.30;99.90
14985;DHT22;7588;62.368;25.902;2022-10-31T03:25:09;-2.40;99.90
14985;DHT22;7588;62.368;25.902;2022-10-31T03:27:38;-2.40;99.90
14985;DHT22;7588;62.368;25.902;2022-10-31T03:30:05;-2.30;99.90
14985;DHT22;7588;62.368;25.902;2022-10-31T03:32:39;-2.40;99.90
14985;DHT22;7588;62.368;25.902;2022-10-31T03:35:07;-2.40;99.90
14985;DHT22;7588;62.368;25.902;2022-10-31T03:37:35;-2.40;99.90
14985;DHT22;7588;62.368;25.902;2022-10-31T03:40:05;-2.50;99.90
14985;DHT22;7588;62.368;25.902;2022-10-31T03:42:33;-2.60;99.90
14985;DHT22;7588;62.368;25.902;2022-10-31T03:45:12;-2.50;99.90
14985;DHT22;7588;62.368;25.902;2022-10-31T03:47:39;-2.60;99.90
14985;DHT22;7588;62.368;25.902;2022-10-31T03:50:07;-2.50;99.90
14985;DHT22;7588;62.368;25.902;2022-10-31T03:52:44;-2.40;99.90
14985;DHT22;7588;62.368;25.902;2022-10-31T03:55:42;-2.60;99.90
14985;DHT22;7588;62.368;25.902;2022-10-31T04:00:45;-2.60;99.90
14985;DHT22;7588;62.368;25.902;2022-10-31T04:03:22;-2.60;99.90
14985;DHT22;7588;62.368;25.902;2022-10-31T04:05:52;-2.60;99.90
14985;DHT22;7588;62.368;25.902;2022-10-31T04:08:22;-2.60;99.90
14985;DHT22;7588;62.368;25.902;2022-10-31T04:10:52;-2.70;99.90
14985;DHT22;7588;62.368;25.902;2022-10-31T04:13:22;-2.70;99.90
14985;DHT22;7588;62.368;25.902;2022-10-31T04:15:50;-2.70;99.90
14985;DHT22;7588;62.368;25.902;2022-10-31T04:18:17;-2.70;99.90
14985;DHT22;7588;62.368;25.902;2022-10-31T04:20:43;-2.80;99.90
14985;DHT22;7588;62.368;25.902;2022-10-31T04:23:25;-2.80;99.90
14985;DHT22;7588;62.368;25.902;2022-10-31T04:25:51;-2.80;99.90
14985;DHT22;7588;62.368;25.902;2022-10-31T04:28:18;-2.80;99.90
14985;DHT22;7588;62.368;25.902;2022-10-31T04:30:44;-2.80;99.90
14985;DHT22;7588;62.368;25.902;2022-10-31T04:33:09;-2.70;99.90
14985;DHT22;7588;62.368;25.902;2022-10-31T04:35:35;-2.70;99.90
14985;DHT22;7588;62.368;25.902;2022-10-31T04:38:01;-2.80;99.90
14985;DHT22;7588;62.368;25.902;2022-10-31T04:40:26;-2.80;99.90
14985;DHT22;7588;62.368;25.902;2022-10-31T04:42:52;-2.80;99.90
14985;DHT22;7588;62.368;25.902;2022-10-31T04:45:18;-2.80;99.90
14985;DHT22;7588;62.368;25.902;2022-10-31T04:47:44;-2.90;99.90
14985;DHT22;7588;62.368;25.902;2022-10-31T04:50:09;-2.80;99.90
14985;DHT22;7588;62.368;25.902;2022-10-31T04:52:39;-2.90;99.90
14985;DHT22;7588;62.368;25.902;2022-10-31T04:55:05;-3.00;99.90
14985;DHT22;7588;62.368;25.902;2022-10-31T04:57:31;-3.00;99.90
14985;DHT22;7588;62.368;25.902;2022-10-31T04:59:57;-3.00;99.90
14985;DHT22;7588;62.368;25.902;2022-10-31T05:02:23;-3.00;99.90
14985;DHT22;7588;62.368;25.902;2022-10-31T05:04:48;-3.00;99.90
14985;DHT22;7588;62.368;25.902;2022-10-31T05:07:14;-3.00;99.90
14985;DHT22;7588;62.368;25.902;2022-10-31T05:09:40;-3.10;99.90
14985;DHT22;7588;62.368;25.902;2022-10-31T05:12:05;-3.10;99.90
14985;DHT22;7588;62.368;25.902;2022-10-31T05:14:31;-3.20;99.90
14985;DHT22;7588;62.368;25.902;2022-10-31T05:16:57;-3.20;99.90
14985;DHT22;7588;62.368;25.902;2022-10-31T05:19:23;-3.20;99.90
14985;DHT22;7588;62.368;25.902;2022-10-31T05:21:48;-3.10;99.90
14985;DHT22;7588;62.368;25.902;2022-10-31T05:24:14;-3.10;99.90
14985;DHT22;7588;62.368;25.902;2022-10-31T05:26:40;-3.20;99.90
14985;DHT22;7588;62.368;25.902;2022-10-31T05:29:05;-3.20;99.90
14985;DHT22;7588;62.368;25.902;2022-10-31T05:31:31;-3.00;99.90
14985;DHT22;7588;62.368;25.902;2022-10-31T05:33:57;-3.10;99.90
14985;DHT22;7588;62.368;25.902;2022-10-31T05:36:22;-3.10;99.90
14985;DHT22;7588;62.368;25.902;2022-10-31T05:38:48;-3.10;99.90
14985;DHT22;7588;62.368;25.902;2022-10-31T05:41:14;-3.20;99.90
14985;DHT22;7588;62.368;25.902;2022-10-31T05:43:39;-3.20;99.90
14985;DHT22;7588;62.368;25.902;2022-10-31T05:46:05;-3.20;99.90
14985;DHT22;7588;62.368;25.902;2022-10-31T05:48:31;-3.20;99.90
14985;DHT22;7588;62.368;25.902;2022-10-31T05:50:57;-3.20;99.90
14985;DHT22;7588;62.368;25.902;2022-10-31T05:53:22;-3.20;99.90
14985;DHT22;7588;62.368;25.902;2022-10-31T05:55:48;-3.20;99.90
14985;DHT22;7588;62.368;25.902;2022-10-31T05:58:14;-3.20;99.90
14985;DHT22;7588;62.368;25.902;2022-10-31T06:00:40;-3.20;99.90
14985;DHT22;7588;62.368;25.902;2022-10-31T06:03:07;-3.20;99.90
14985;DHT22;7588;62.368;25.902;2022-10-31T06:05:33;-3.10;99.90
14985;DHT22;7588;62.368;25.902;2022-10-31T06:07:59;-3.20;99.90
14985;DHT22;7588;62.368;25.902;2022-10-31T06:10:25;-3.20;99.90
14985;DHT22;7588;62.368;25.902;2022-10-31T06:12:51;-3.20;99.90
14985;DHT22;7588;62.368;25.902;2022-10-31T06:15:17;-3.10;99.90
14985;DHT22;7588;62.368;25.902;2022-10-31T06:17:43;-3.10;99.90
14985;DHT22;7588;62.368;25.902;2022-10-31T06:20:09;-3.10;99.90
14985;DHT22;7588;62.368;25.902;2022-10-31T06:22:35;-3.10;99.90
14985;DHT22;7588;62.368;25.902;2022-10-31T06:25:01;-3.00;99.90
14985;DHT22;7588;62.368;25.902;2022-10-31T06:27:27;-3.00;99.90
14985;DHT22;7588;62.368;25.902;2022-10-31T06:29:52;-2.90;99.90
14985;DHT22;7588;62.368;25.902;2022-10-31T06:32:19;-3.00;99.90
14985;DHT22;7588;62.368;25.902;2022-10-31T06:34:44;-2.90;99.90
14985;DHT22;7588;62.368;25.902;2022-10-31T06:37:14;-2.90;99.90
14985;DHT22;7588;62.368;25.902;2022-10-31T06:39:40;-3.00;99.90
14985;DHT22;7588;62.368;25.902;2022-10-31T06:42:06;-2.90;99.90
14985;DHT22;7588;62.368;25.902;2022-10-31T06:44:32;-2.90;99.90
14985;DHT22;7588;62.368;25.902;2022-10-31T06:46:58;-2.80;99.90
14985;DHT22;7588;62.368;25.902;2022-10-31T06:49:23;-2.80;99.90
14985;DHT22;7588;62.368;25.902;2022-10-31T06:51:50;-2.80;99.90
14985;DHT22;7588;62.368;25.902;2022-10-31T06:54:16;-2.80;99.90
14985;DHT22;7588;62.368;25.902;2022-10-31T06:56:42;-2.80;99.90
14985;DHT22;7588;62.368;25.902;2022-10-31T06:59:08;-2.60;99.90
14985;DHT22;7588;62.368;25.902;2022-10-31T07:01:33;-2.60;99.90
14985;DHT22;7588;62.368;25.902;2022-10-31T07:04:00;-2.60;99.90
14985;DHT22;7588;62.368;25.902;2022-10-31T07:06:26;-2.60;99.90
14985;DHT22;7588;62.368;25.902;2022-10-31T07:08:51;-2.50;99.90
14985;DHT22;7588;62.368;25.902;2022-10-31T07:11:17;-2.40;99.90
14985;DHT22;7588;62.368;25.902;2022-10-31T07:13:43;-2.50;99.90
14985;DHT22;7588;62.368;25.902;2022-10-31T07:16:09;-2.50;99.90
14985;DHT22;7588;62.368;25.902;2022-10-31T07:18:39;-2.40;99.90
14985;DHT22;7588;62.368;25.902;2022-10-31T07:21:05;-2.40;99.90
14985;DHT22;7588;62.368;25.902;2022-10-31T07:23:31;-2.40;99.90
14985;DHT22;7588;62.368;25.902;2022-10-31T07:25:58;-2.20;99.90
14985;DHT22;7588;62.368;25.902;2022-10-31T07:28:25;-2.20;99.90
14985;DHT22;7588;62.368;25.902;2022-10-31T07:30:56;-2.20;99.90
14985;DHT22;7588;62.368;25.902;2022-10-31T07:33:22;-2.10;99.90
14985;DHT22;7588;62.368;25.902;2022-10-31T07:35:47;-2.10;99.90
14985;DHT22;7588;62.368;25.902;2022-10-31T07:38:14;-2.00;99.90
14985;DHT22;7588;62.368;25.902;2022-10-31T07:40:41;-1.80;99.90
14985;DHT22;7588;62.368;25.902;2022-10-31T07:43:08;-1.60;99.90
14985;DHT22;7588;62.368;25.902;2022-10-31T07:45:34;-1.50;99.90
14985;DHT22;7588;62.368;25.902;2022-10-31T07:47:59;-1.30;99.90
14985;DHT22;7588;62.368;25.902;2022-10-31T07:50:28;-1.20;99.90
14985;DHT22;7588;62.368;25.902;2022-10-31T07:53:13;-1.10;99.90
14985;DHT22;7588;62.368;25.902;2022-10-31T07:55:39;-1.00;99.90
14985;DHT22;7588;62.368;25.902;2022-10-31T07:58:07;-0.90;99.90
14985;DHT22;7588;62.368;25.902;2022-10-31T08:00:34;-0.70;99.90
14985;DHT22;7588;62.368;25.902;2022-10-31T08:03:12;-0.60;99.90
14985;DHT22;7588;62.368;25.902;2022-10-31T08:05:38;-0.50;99.90
14985;DHT22;7588;62.368;25.902;2022-10-31T08:08:05;-0.30;99.90
14985;DHT22;7588;62.368;25.902;2022-10-31T08:10:31;-0.10;99.90
14985;DHT22;7588;62.368;25.902;2022-10-31T08:13:03;0.00;99.90
14985;DHT22;7588;62.368;25.902;2022-10-31T08:15:29;0.10;99.90
14985;DHT22;7588;62.368;25.902;2022-10-31T08:17:55;0.30;99.90
14985;DHT22;7588;62.368;25.902;2022-10-31T08:20:21;0.40;99.90
14985;DHT22;7588;62.368;25.902;2022-10-31T08:23:01;0.60;99.90
14985;DHT22;7588;62.368;25.902;2022-10-31T08:25:29;0.60;99.90
14985;DHT22;7588;62.368;25.902;2022-10-31T08:27:55;0.70;99.90
14985;DHT22;7588;62.368;25.902;2022-10-31T08:30:23;0.70;99.90
14985;DHT22;7588;62.368;25.902;2022-10-31T08:35:36;0.80;99.90
14985;DHT22;7588;62.368;25.902;2022-10-31T08:38:02;0.90;99.90
14985;DHT22;7588;62.368;25.902;2022-10-31T08:40:29;0.90;99.90
14985;DHT22;7588;62.368;25.902;2022-10-31T08:43:08;1.00;99.90
14985;DHT22;7588;62.368;25.902;2022-10-31T08:45:35;1.00;99.90
14985;DHT22;7588;62.368;25.902;2022-10-31T08:48:04;1.10;99.90
14985;DHT22;7588;62.368;25.902;2022-10-31T08:50:32;1.20;99.90
14985;DHT22;7588;62.368;25.902;2022-10-31T08:53:06;1.20;99.90
14985;DHT22;7588;62.368;25.902;2022-10-31T08:55:34;1.30;99.90
14985;DHT22;7588;62.368;25.902;2022-10-31T08:58:01;1.30;99.90
14985;DHT22;7588;62.368;25.902;2022-10-31T09:00:27;1.30;99.90
14985;DHT22;7588;62.368;25.902;2022-10-31T09:02:56;1.40;99.90
14985;DHT22;7588;62.368;25.902;2022-10-31T09:05:23;1.40;99.90
14985;DHT22;7588;62.368;25.902;2022-10-31T09:07:48;1.50;99.90
14985;DHT22;7588;62.368;25.902;2022-10-31T09:10:14;1.50;99.90
14985;DHT22;7588;62.368;25.902;2022-10-31T09:12:40;1.50;99.90
14985;DHT22;7588;62.368;25.902;2022-10-31T09:15:07;1.50;99.90
14985;DHT22;7588;62.368;25.902;2022-10-31T09:17:33;1.50;99.90
14985;DHT22;7588;62.368;25.902;2022-10-31T09:19:58;1.60;99.90
14985;DHT22;7588;62.368;25.902;2022-10-31T09:22:24;1.60;99.90
14985;DHT22;7588;62.368;25.902;2022-10-31T09:24:50;1.60;99.90
14985;DHT22;7588;62.368;25.902;2022-10-31T09:27:15;1.60;99.90
14985;DHT22;7588;62.368;25.902;2022-10-31T09:29:41;1.70;99.90
14985;DHT22;7588;62.368;25.902;2022-10-31T09:32:07;1.70;99.90
14985;DHT22;7588;62.368;25.902;2022-10-31T09:34:32;1.70;99.90
14985;DHT22;7588;62.368;25.902;2022-10-31T09:36:58;1.80;99.90
14985;DHT22;7588;62.368;25.902;2022-10-31T09:39:24;1.80;99.90
14985;DHT22;7588;62.368;25.902;2022-10-31T09:48:07;2.00;99.90
14985;DHT22;7588;62.368;25.902;2022-10-31T09:50:48;2.00;99.90
14985;DHT22;7588;62.368;25.902;2022-10-31T09:53:29;2.10;99.90
14985;DHT22;7588;62.368;25.902;2022-10-31T09:55:58;2.20;99.90
14985;DHT22;7588;62.368;25.902;2022-10-31T09:58:26;2.30;99.90
14985;DHT22;7588;62.368;25.902;2022-10-31T10:00:55;2.40;99.90
14985;DHT22;7588;62.368;25.902;2022-10-31T10:03:35;2.30;99.90
14985;DHT22;7588;62.368;25.902;2022-10-31T10:06:17;2.30;99.90
14985;DHT22;7588;62.368;25.902;2022-10-31T10:08:44;2.40;99.90
14985;DHT22;7588;62.368;25.902;2022-10-31T10:30:08;3.70;99.90
14985;DHT22;7588;62.368;25.902;2022-10-31T10:32:49;3.90;99.90
14985;DHT22;7588;62.368;25.902;2022-10-31T10:35:34;3.80;99.90
14985;DHT22;7588;62.368;25.902;2022-10-31T10:38:17;3.70;99.90
14985;DHT22;7588;62.368;25.902;2022-10-31T10:40:44;3.60;99.90
14985;DHT22;7588;62.368;25.902;2022-10-31T10:43:21;3.60;99.90
14985;DHT22;7588;62.368;25.902;2022-10-31T10:45:59;3.50;99.90
14985;DHT22;7588;62.368;25.902;2022-10-31T10:48:58;3.80;99.90
14985;DHT22;7588;62.368;25.902;2022-10-31T10:56:48;5.10;99.90
14985;DHT22;7588;62.368;25.902;2022-10-31T10:59:19;5.50;99.90
14985;DHT22;7588;62.368;25.902;2022-10-31T11:01:48;5.60;99.90
14985;DHT22;7588;62.368;25.902;2022-10-31T11:04:36;5.50;99.90
14985;DHT22;7588;62.368;25.902;2022-10-31T11:07:09;5.40;99.90
14985;DHT22;7588;62.368;25.902;2022-10-31T11:09:36;5.30;99.90
14985;DHT22;7588;62.368;25.902;2022-10-31T11:12:16;5.20;99.90
14985;DHT22;7588;62.368;25.902;2022-10-31T11:15:07;5.40;99.90
14985;DHT22;7588;62.368;25.902;2022-10-31T11:17:32;5.60;99.90
14985;DHT22;7588;62.368;25.902;2022-10-31T11:20:06;6.00;99.90
14985;DHT22;7588;62.368;25.902;2022-10-31T11:22:47;6.30;99.90
14985;DHT22;7588;62.368;25.902;2022-10-31T11:27:59;7.10;99.90
14985;DHT22;7588;62.368;25.902;2022-10-31T11:30:25;7.00;99.90
14985;DHT22;7588;62.368;25.902;2022-10-31T11:32:51;6.60;99.90
14985;DHT22;7588;62.368;25.902;2022-10-31T11:35:19;6.30;99.90
14985;DHT22;7588;62.368;25.902;2022-10-31T11:37:47;6.30;99.90
14985;DHT22;7588;62.368;25.902;2022-10-31T11:40:32;6.20;99.90
14985;DHT22;7588;62.368;25.902;2022-10-31T11:42:58;6.50;99.90
14985;DHT22;7588;62.368;25.902;2022-10-31T11:45:34;6.80;99.90
14985;DHT22;7588;62.368;25.902;2022-10-31T11:48:12;7.10;99.90
14985;DHT22;7588;62.368;25.902;2022-10-31T11:50:41;7.40;99.90
14985;DHT22;7588;62.368;25.902;2022-10-31T11:53:17;7.40;99.90
14985;DHT22;7588;62.368;25.902;2022-10-31T11:55:44;7.60;99.90
14985;DHT22;7588;62.368;25.902;2022-10-31T11:58:24;7.30;99.90
14985;DHT22;7588;62.368;25.902;2022-10-31T12:00:53;6.90;99.90
14985;DHT22;7588;62.368;25.902;2022-10-31T12:08:17;6.40;99.90
14985;DHT22;7588;62.368;25.902;2022-10-31T12:10:50;6.10;99.90
14985;DHT22;7588;62.368;25.902;2022-10-31T12:13:44;6.00;99.90
14985;DHT22;7588;62.368;25.902;2022-10-31T12:16:31;5.80;99.90
14985;DHT22;7588;62.368;25.902;2022-10-31T12:24:40;5.40;99.90
14985;DHT22;7588;62.368;25.902;2022-10-31T12:38:44;5.30;99.90
14985;DHT22;7588;62.368;25.902;2022-10-31T12:52:26;6.80;99.90
14985;DHT22;7588;62.368;25.902;2022-10-31T12:58:07;7.10;99.90
14985;DHT22;7588;62.368;25.902;2022-10-31T13:00:37;7.10;99.90
14985;DHT22;7588;62.368;25.902;2022-10-31T13:03:25;7.20;99.90
14985;DHT22;7588;62.368;25.902;2022-10-31T13:05:58;7.60;99.90
14985;DHT22;7588;62.368;25.902;2022-10-31T13:08:54;7.50;99.90
14985;DHT22;7588;62.368;25.902;2022-10-31T13:11:42;7.10;99.90
14985;DHT22;7588;62.368;25.902;2022-10-31T13:17:02;6.40;99.90
14985;DHT22;7588;62.368;25.902;2022-10-31T13:19:38;6.00;99.90
14985;DHT22;7588;62.368;25.902;2022-10-31T13:22:18;5.30;99.90
14985;DHT22;7588;62.368;25.902;2022-10-31T13:25:37;4.90;99.90
14985;DHT22;7588;62.368;25.902;2022-10-31T13:28:23;4.40;99.90
14985;DHT22;7588;62.368;25.902;2022-10-31T13:30:51;4.10;99.90
14985;DHT22;7588;62.368;25.902;2022-10-31T13:38:56;3.20;99.90
14985;DHT22;7588;62.368;25.902;2022-10-31T13:44:24;2.70;99.90
14985;DHT22;7588;62.368;25.902;2022-10-31T13:46:55;2.60;99.90
14985;DHT22;7588;62.368;25.902;2022-10-31T13:49:23;2.50;99.90
14985;DHT22;7588;62.368;25.902;2022-10-31T13:51:49;2.40;99.90
14985;DHT22;7588;62.368;25.902;2022-10-31T13:54:23;2.30;99.90
14985;DHT22;7588;62.368;25.902;2022-10-31T13:56:56;2.20;99.90
14985;DHT22;7588;62.368;25.902;2022-10-31T13:59:24;2.10;99.90
14985;DHT22;7588;62.368;25.902;2022-10-31T14:02:01;2.00;99.90
14985;DHT22;7588;62.368;25.902;2022-10-31T14:04:37;1.90;99.90
14985;DHT22;7588;62.368;25.902;2022-10-31T14:07:19;1.70;99.90
14985;DHT22;7588;62.368;25.902;2022-10-31T14:12:50;1.50;99.90
14985;DHT22;7588;62.368;25.902;2022-10-31T14:15:26;1.50;99.90
14985;DHT22;7588;62.368;25.902;2022-10-31T14:17:58;1.50;99.90
14985;DHT22;7588;62.368;25.902;2022-10-31T14:22:57;1.30;99.90
14985;DHT22;7588;62.368;25.902;2022-10-31T14:25:34;1.20;99.90
14985;DHT22;7588;62.368;25.902;2022-10-31T14:28:02;1.10;99.90
14985;DHT22;7588;62.368;25.902;2022-10-31T14:30:29;1.00;99.90
14985;DHT22;7588;62.368;25.902;2022-10-31T14:33:01;1.00;99.90
14985;DHT22;7588;62.368;25.902;2022-10-31T14:41:25;1.10;99.90
14985;DHT22;7588;62.368;25.902;2022-10-31T14:49:37;1.20;99.90
14985;DHT22;7588;62.368;25.902;2022-10-31T14:52:08;1.20;99.90
14985;DHT22;7588;62.368;25.902;2022-10-31T14:54:41;1.20;99.90
14985;DHT22;7588;62.368;25.902;2022-10-31T14:57:19;1.20;99.90
14985;DHT22;7588;62.368;25.902;2022-10-31T14:59:50;1.20;99.90
14985;DHT22;7588;62.368;25.902;2022-10-31T15:05:13;1.20;99.90
14985;DHT22;7588;62.368;25.902;2022-10-31T15:07:55;1.30;99.90
14985;DHT22;7588;62.368;25.902;2022-10-31T15:10:25;1.40;99.90
14985;DHT22;7588;62.368;25.902;2022-10-31T15:12:51;1.60;99.90
14985;DHT22;7588;62.368;25.902;2022-10-31T15:15:25;1.80;99.90
14985;DHT22;7588;62.368;25.902;2022-10-31T15:17:59;1.90;99.90
14985;DHT22;7588;62.368;25.902;2022-10-31T15:20:28;2.00;99.90
14985;DHT22;7588;62.368;25.902;2022-10-31T15:22:58;2.00;99.90
14985;DHT22;7588;62.368;25.902;2022-10-31T15:25:27;2.10;99.90
14985;DHT22;7588;62.368;25.902;2022-10-31T15:27:54;2.10;99.90
14985;DHT22;7588;62.368;25.902;2022-10-31T15:30:25;2.20;99.90
14985;DHT22;7588;62.368;25.902;2022-10-31T15:32:51;2.40;99.90
14985;DHT22;7588;62.368;25.902;2022-10-31T15:37:51;2.50;99.90
14985;DHT22;7588;62.368;25.902;2022-10-31T15:40:19;2.50;99.90
14985;DHT22;7588;62.368;25.902;2022-10-31T15:45:22;2.70;99.90
14985;DHT22;7588;62.368;25.902;2022-10-31T15:47:57;2.80;99.90
14985;DHT22;7588;62.368;25.902;2022-10-31T15:50:37;2.90;99.90
14985;DHT22;7588;62.368;25.902;2022-10-31T15:53:05;3.00;99.90
14985;DHT22;7588;62.368;25.902;2022-10-31T15:55:36;3.00;99.90
14985;DHT22;7588;62.368;25.902;2022-10-31T15:58:11;3.10;99.90
14985;DHT22;7588;62.368;25.902;2022-10-31T16:00:38;3.20;99.90
14985;DHT22;7588;62.368;25.902;2022-10-31T16:05:43;3.40;99.90
14985;DHT22;7588;62.368;25.902;2022-10-31T16:10:52;3.50;99.90
14985;DHT22;7588;62.368;25.902;2022-10-31T16:13:22;3.50;99.90
14985;DHT22;7588;62.368;25.902;2022-10-31T16:15:52;3.60;99.90
14985;DHT22;7588;62.368;25.902;2022-10-31T16:18:19;3.70;99.90
14985;DHT22;7588;62.368;25.902;2022-10-31T16:20:49;3.70;99.90
14985;DHT22;7588;62.368;25.902;2022-10-31T16:23:18;3.70;99.90
14985;DHT22;7588;62.368;25.902;2022-10-31T16:25:45;3.70;99.90
14985;DHT22;7588;62.368;25.902;2022-10-31T16:28:25;3.70;99.90
14985;DHT22;7588;62.368;25.902;2022-10-31T16:30:56;3.70;99.90
14985;DHT22;7588;62.368;25.902;2022-10-31T16:35:55;3.70;99.90
14985;DHT22;7588;62.368;25.902;2022-10-31T16:38:22;3.70;99.90
14985;DHT22;7588;62.368;25.902;2022-10-31T16:40:49;3.70;99.90
14985;DHT22;7588;62.368;25.902;2022-10-31T16:43:17;3.70;99.90
14985;DHT22;7588;62.368;25.902;2022-10-31T16:45:52;3.70;99.90
14985;DHT22;7588;62.368;25.902;2022-10-31T16:48:20;3.80;99.90
14985;DHT22;7588;62.368;25.902;2022-10-31T16:50:48;3.80;99.90
14985;DHT22;7588;62.368;25.902;2022-10-31T16:53:14;3.80;99.90
14985;DHT22;7588;62.368;25.902;2022-10-31T16:55:54;3.80;99.90
14985;DHT22;7588;62.368;25.902;2022-10-31T16:58:31;3.80;99.90
14985;DHT22;7588;62.368;25.902;2022-10-31T17:00:59;3.80;99.90
14985;DHT22;7588;62.368;25.902;2022-10-31T17:03:25;3.80;99.90
14985;DHT22;7588;62.368;25.902;2022-10-31T17:05:51;3.80;99.90
14985;DHT22;7588;62.368;25.902;2022-10-31T17:08:17;3.80;99.90
14985;DHT22;7588;62.368;25.902;2022-10-31T17:10:44;3.80;99.90
14985;DHT22;7588;62.368;25.902;2022-10-31T17:13:16;3.80;99.90
14985;DHT22;7588;62.368;25.902;2022-10-31T17:15:46;3.80;99.90
14985;DHT22;7588;62.368;25.902;2022-10-31T17:18:14;3.80;99.90
14985;DHT22;7588;62.368;25.902;2022-10-31T17:20:40;3.80;99.90
14985;DHT22;7588;62.368;25.902;2022-10-31T17:23:08;3.90;99.90
14985;DHT22;7588;62.368;25.902;2022-10-31T17:25:34;3.90;99.90
14985;DHT22;7588;62.368;25.902;2022-10-31T17:28:00;3.90;99.90
14985;DHT22;7588;62.368;25.902;2022-10-31T17:30:26;3.90;99.90
14985;DHT22;7588;62.368;25.902;2022-10-31T17:32:52;3.90;99.90
14985;DHT22;7588;62.368;25.902;2022-10-31T17:35:20;3.90;99.90
14985;DHT22;7588;62.368;25.902;2022-10-31T17:37:47;3.90;99.90
14985;DHT22;7588;62.368;25.902;2022-10-31T17:40:16;3.90;99.90
14985;DHT22;7588;62.368;25.902;2022-10-31T17:42:51;3.90;99.90
14985;DHT22;7588;62.368;25.902;2022-10-31T17:45:18;3.90;99.90
14985;DHT22;7588;62.368;25.902;2022-10-31T17:47:46;4.00;99.90
14985;DHT22;7588;62.368;25.902;2022-10-31T17:50:13;4.00;99.90
14985;DHT22;7588;62.368;25.902;2022-10-31T17:52:39;4.00;99.90
14985;DHT22;7588;62.368;25.902;2022-10-31T17:55:05;4.00;99.90
14985;DHT22;7588;62.368;25.902;2022-10-31T17:57:34;4.00;99.90
14985;DHT22;7588;62.368;25.902;2022-10-31T18:00:02;4.10;99.90
14985;DHT22;7588;62.368;25.902;2022-10-31T18:02:27;4.10;99.90
14985;DHT22;7588;62.368;25.902;2022-10-31T18:04:53;4.10;99.90
14985;DHT22;7588;62.368;25.902;2022-10-31T18:07:19;4.20;99.90
14985;DHT22;7588;62.368;25.902;2022-10-31T18:09:46;4.20;99.90
14985;DHT22;7588;62.368;25.902;2022-10-31T18:12:13;4.10;99.90
14985;DHT22;7588;62.368;25.902;2022-10-31T18:14:39;4.20;99.90
14985;DHT22;7588;62.368;25.902;2022-10-31T18:17:05;4.20;99.90
14985;DHT22;7588;62.368;25.902;2022-10-31T18:19:31;4.20;99.90
14985;DHT22;7588;62.368;25.902;2022-10-31T18:21:57;4.20;99.90
14985;DHT22;7588;62.368;25.902;2022-10-31T18:24:23;4.20;99.90
14985;DHT22;7588;62.368;25.902;2022-10-31T18:26:49;4.20;99.90
14985;DHT22;7588;62.368;25.902;2022-10-31T18:29:14;4.20;99.90